sensor_id;sensor_type;location;lat;lon;timestamp;P1;durP1;ratioP1;P2;durP2;ratioP2
33313;SDS011;19674;51.814;107.688;2022-07-01T00:01:38;0.10;;;0.10;;
33313;SDS011;19674;51.814;107.688;2022-07-01T00:04:05;0.10;;;0.10;;
33313;SDS011;19674;51.814;107.688;2022-07-01T00:06:31;0.10;;;0.10;;
33313;SDS011;19674;51.814;107.688;2022-07-01T00:08:58;0.10;;;0.10;;
33313;SDS011;19674;51.814;107.688;2022-07-01T00:11:24;0.10;;;0.10;;
33313;SDS011;19674;51.814;107.688;2022-07-01T00:13:50;0.20;;;0.20;;
33313;SDS011;19674;51.814;107.688;2022-07-01T00:16:16;0.10;;;0.10;;
33313;SDS011;19674;51.814;107.688;2022-07-01T00:18:42;0.10;;;0.10;;
33313;SDS011;19674;51.814;107.688;2022-07-01T00:21:08;0.20;;;0.20;;
33313;SDS011;19674;51.814;107.688;2022-07-01T00:23:35;0.17;;;0.17;;
33313;SDS011;19674;51.814;107.688;2022-07-01T00:26:01;0.20;;;0.20;;
33313;SDS011;19674;51.814;107.688;2022-07-01T00:28:27;0.10;;;0.10;;
33313;SDS011;19674;51.814;107.688;2022-07-01T00:30:53;0.10;;;0.10;;
33313;SDS011;19674;51.814;107.688;2022-07-01T00:33:19;0.13;;;0.13;;
33313;SDS011;19674;51.814;107.688;2022-07-01T00:35:45;0.10;;;0.10;;
33313;SDS011;19674;51.814;107.688;2022-07-01T00:38:11;0.13;;;0.13;;
33313;SDS011;19674;51.814;107.688;2022-07-01T00:40:37;0.20;;;0.20;;
33313;SDS011;19674;51.814;107.688;2022-07-01T00:43:03;0.20;;;0.20;;
33313;SDS011;19674;51.814;107.688;2022-07-01T00:45:30;0.20;;;0.20;;
33313;SDS011;19674;51.814;107.688;2022-07-01T00:47:55;0.20;;;0.20;;
33313;SDS011;19674;51.814;107.688;2022-07-01T00:50:22;0.20;;;0.20;;
33313;SDS011;19674;51.814;107.688;2022-07-01T00:52:48;0.20;;;0.20;;
33313;SDS011;19674;51.814;107.688;2022-07-01T00:55:15;0.20;;;0.20;;
33313;SDS011;19674;51.814;107.688;2022-07-01T00:57:42;0.13;;;0.13;;
33313;SDS011;19674;51.814;107.688;2022-07-01T01:00:10;0.20;;;0.20;;
33313;SDS011;19674;51.814;107.688;2022-07-01T01:02:38;0.10;;;0.10;;
33313;SDS011;19674;51.814;107.688;2022-07-01T01:05:05;0.20;;;0.20;;
33313;SDS011;19674;51.814;107.688;2022-07-01T01:07:32;0.20;;;0.20;;
33313;SDS011;19674;51.814;107.688;2022-07-01T01:09:58;0.20;;;0.20;;
33313;SDS011;19674;51.814;107.688;2022-07-01T01:12:25;0.10;;;0.10;;
33313;SDS011;19674;51.814;107.688;2022-07-01T01:14:52;0.20;;;0.20;;
33313;SDS011;19674;51.814;107.688;2022-07-01T01:17:18;0.20;;;0.20;;
33313;SDS011;19674;51.814;107.688;2022-07-01T01:19:44;0.10;;;0.10;;
33313;SDS011;19674;51.814;107.688;2022-07-01T01:22:11;0.20;;;0.20;;
33313;SDS011;19674;51.814;107.688;2022-07-01T01:24:40;0.20;;;0.20;;
33313;SDS011;19674;51.814;107.688;2022-07-01T01:27:06;0.17;;;0.17;;
33313;SDS011;19674;51.814;107.688;2022-07-01T01:29:34;0.20;;;0.20;;
33313;SDS011;19674;51.814;107.688;2022-07-01T01:32:01;0.20;;;0.20;;
33313;SDS011;19674;51.814;107.688;2022-07-01T01:34:34;0.20;;;0.20;;
33313;SDS011;19674;51.814;107.688;2022-07-01T01:37:05;0.20;;;0.20;;
33313;SDS011;19674;51.814;107.688;2022-07-01T01:39:32;0.20;;;0.20;;
33313;SDS011;19674;51.814;107.688;2022-07-01T01:41:58;0.20;;;0.20;;
33313;SDS011;19674;51.814;107.688;2022-07-01T01:44:25;0.13;;;0.13;;
33313;SDS011;19674;51.814;107.688;2022-07-01T01:46:51;0.22;;;0.22;;
33313;SDS011;19674;51.814;107.688;2022-07-01T01:49:17;0.20;;;0.20;;
33313;SDS011;19674;51.814;107.688;2022-07-01T01:51:43;0.20;;;0.20;;
33313;SDS011;19674;51.814;107.688;2022-07-01T01:54:10;0.20;;;0.20;;
33313;SDS011;19674;51.814;107.688;2022-07-01T01:56:36;0.20;;;0.20;;
33313;SDS011;19674;51.814;107.688;2022-07-01T01:59:02;0.20;;;0.20;;
33313;SDS011;19674;51.814;107.688;2022-07-01T02:01:29;0.20;;;0.20;;
33313;SDS011;19674;51.814;107.688;2022-07-01T02:03:55;0.20;;;0.20;;
33313;SDS011;19674;51.814;107.688;2022-07-01T02:06:22;0.20;;;0.20;;
33313;SDS011;19674;51.814;107.688;2022-07-01T02:08:49;0.20;;;0.20;;
33313;SDS011;19674;51.814;107.688;2022-07-01T02:11:15;0.20;;;0.20;;
33313;SDS011;19674;51.814;107.688;2022-07-01T02:13:41;0.20;;;0.20;;
33313;SDS011;19674;51.814;107.688;2022-07-01T02:16:09;0.30;;;0.30;;
33313;SDS011;19674;51.814;107.688;2022-07-01T02:18:36;0.20;;;0.20;;
33313;SDS011;19674;51.814;107.688;2022-07-01T02:21:02;0.30;;;0.30;;
33313;SDS011;19674;51.814;107.688;2022-07-01T02:23:28;0.30;;;0.30;;
33313;SDS011;19674;51.814;107.688;2022-07-01T02:25:54;0.20;;;0.20;;
33313;SDS011;19674;51.814;107.688;2022-07-01T02:28:21;0.20;;;0.20;;
33313;SDS011;19674;51.814;107.688;2022-07-01T02:30:47;0.20;;;0.20;;
33313;SDS011;19674;51.814;107.688;2022-07-01T02:33:13;0.20;;;0.20;;
33313;SDS011;19674;51.814;107.688;2022-07-01T02:35:40;0.30;;;0.30;;
33313;SDS011;19674;51.814;107.688;2022-07-01T02:38:07;0.30;;;0.30;;
33313;SDS011;19674;51.814;107.688;2022-07-01T02:40:36;0.20;;;0.20;;
33313;SDS011;19674;51.814;107.688;2022-07-01T02:43:08;0.30;;;0.30;;
33313;SDS011;19674;51.814;107.688;2022-07-01T02:45:34;0.20;;;0.20;;
33313;SDS011;19674;51.814;107.688;2022-07-01T02:48:00;0.30;;;0.30;;
33313;SDS011;19674;51.814;107.688;2022-07-01T02:50:27;0.30;;;0.30;;
33313;SDS011;19674;51.814;107.688;2022-07-01T02:52:53;0.30;;;0.30;;
33313;SDS011;19674;51.814;107.688;2022-07-01T02:55:19;0.30;;;0.30;;
33313;SDS011;19674;51.814;107.688;2022-07-01T02:57:45;0.30;;;0.30;;
33313;SDS011;19674;51.814;107.688;2022-07-01T03:00:14;0.30;;;0.30;;
33313;SDS011;19674;51.814;107.688;2022-07-01T03:02:41;0.30;;;0.30;;
33313;SDS011;19674;51.814;107.688;2022-07-01T03:05:07;0.30;;;0.30;;
33313;SDS011;19674;51.814;107.688;2022-07-01T03:07:35;0.30;;;0.30;;
33313;SDS011;19674;51.814;107.688;2022-07-01T03:10:05;0.30;;;0.30;;
33313;SDS011;19674;51.814;107.688;2022-07-01T03:12:31;0.30;;;0.30;;
33313;SDS011;19674;51.814;107.688;2022-07-01T03:15:02;0.30;;;0.30;;
33313;SDS011;19674;51.814;107.688;2022-07-01T03:17:30;0.30;;;0.30;;
33313;SDS011;19674;51.814;107.688;2022-07-01T03:19:57;0.38;;;0.38;;
33313;SDS011;19674;51.814;107.688;2022-07-01T03:22:27;0.30;;;0.30;;
33313;SDS011;19674;51.814;107.688;2022-07-01T03:24:54;0.30;;;0.30;;
33313;SDS011;19674;51.814;107.688;2022-07-01T03:27:21;0.30;;;0.30;;
33313;SDS011;19674;51.814;107.688;2022-07-01T03:29:48;0.30;;;0.30;;
33313;SDS011;19674;51.814;107.688;2022-07-01T03:32:14;0.30;;;0.30;;
33313;SDS011;19674;51.814;107.688;2022-07-01T03:34:41;0.30;;;0.30;;
33313;SDS011;19674;51.814;107.688;2022-07-01T03:37:08;0.30;;;0.30;;
33313;SDS011;19674;51.814;107.688;2022-07-01T03:39:36;0.30;;;0.30;;
33313;SDS011;19674;51.814;107.688;2022-07-01T03:42:02;0.30;;;0.30;;
33313;SDS011;19674;51.814;107.688;2022-07-01T03:44:31;0.40;;;0.40;;
33313;SDS011;19674;51.814;107.688;2022-07-01T03:46:58;0.35;;;0.35;;
33313;SDS011;19674;51.814;107.688;2022-07-01T03:49:24;0.30;;;0.30;;
33313;SDS011;19674;51.814;107.688;2022-07-01T03:51:50;0.40;;;0.40;;
33313;SDS011;19674;51.814;107.688;2022-07-01T03:54:17;0.30;;;0.30;;
33313;SDS011;19674;51.814;107.688;2022-07-01T03:56:56;0.40;;;0.40;;
33313;SDS011;19674;51.814;107.688;2022-07-01T03:59:24;0.40;;;0.40;;
33313;SDS011;19674;51.814;107.688;2022-07-01T04:01:51;0.40;;;0.40;;
33313;SDS011;19674;51.814;107.688;2022-07-01T04:04:18;0.35;;;0.35;;
33313;SDS011;19674;51.814;107.688;2022-07-01T04:06:44;0.38;;;0.38;;
33313;SDS011;19674;51.814;107.688;2022-07-01T04:09:11;0.40;;;0.40;;
33313;SDS011;19674;51.814;107.688;2022-07-01T04:11:39;0.40;;;0.40;;
33313;SDS011;19674;51.814;107.688;2022-07-01T04:14:06;0.35;;;0.35;;
33313;SDS011;19674;51.814;107.688;2022-07-01T04:16:33;0.40;;;0.40;;
33313;SDS011;19674;51.814;107.688;2022-07-01T04:18:59;0.40;;;0.40;;
33313;SDS011;19674;51.814;107.688;2022-07-01T04:21:25;0.40;;;0.40;;
33313;SDS011;19674;51.814;107.688;2022-07-01T04:24:09;0.40;;;0.40;;
33313;SDS011;19674;51.814;107.688;2022-07-01T04:26:35;0.40;;;0.40;;
33313;SDS011;19674;51.814;107.688;2022-07-01T04:29:02;0.40;;;0.40;;
33313;SDS011;19674;51.814;107.688;2022-07-01T04:31:28;0.40;;;0.40;;
33313;SDS011;19674;51.814;107.688;2022-07-01T04:33:54;0.40;;;0.40;;
33313;SDS011;19674;51.814;107.688;2022-07-01T04:36:20;0.40;;;0.40;;
33313;SDS011;19674;51.814;107.688;2022-07-01T04:38:46;0.43;;;0.43;;
33313;SDS011;19674;51.814;107.688;2022-07-01T04:41:12;0.40;;;0.40;;
33313;SDS011;19674;51.814;107.688;2022-07-01T04:43:57;0.40;;;0.40;;
33313;SDS011;19674;51.814;107.688;2022-07-01T04:46:23;0.40;;;0.40;;
33313;SDS011;19674;51.814;107.688;2022-07-01T04:48:49;0.40;;;0.40;;
33313;SDS011;19674;51.814;107.688;2022-07-01T04:51:15;0.40;;;0.40;;
33313;SDS011;19674;51.814;107.688;2022-07-01T04:53:41;0.40;;;0.40;;
33313;SDS011;19674;51.814;107.688;2022-07-01T04:56:07;0.40;;;0.40;;
33313;SDS011;19674;51.814;107.688;2022-07-01T04:58:33;0.40;;;0.40;;
33313;SDS011;19674;51.814;107.688;2022-07-01T05:00:59;0.40;;;0.40;;
33313;SDS011;19674;51.814;107.688;2022-07-01T05:03:25;0.40;;;0.40;;
33313;SDS011;19674;51.814;107.688;2022-07-01T05:05:51;0.32;;;0.32;;
33313;SDS011;19674;51.814;107.688;2022-07-01T05:08:17;0.30;;;0.30;;
33313;SDS011;19674;51.814;107.688;2022-07-01T05:10:43;0.30;;;0.30;;
33313;SDS011;19674;51.814;107.688;2022-07-01T05:13:09;0.40;;;0.40;;
33313;SDS011;19674;51.814;107.688;2022-07-01T05:15:35;0.40;;;0.40;;
33313;SDS011;19674;51.814;107.688;2022-07-01T05:18:01;0.40;;;0.40;;
33313;SDS011;19674;51.814;107.688;2022-07-01T05:20:45;0.40;;;0.40;;
33313;SDS011;19674;51.814;107.688;2022-07-01T05:23:30;0.30;;;0.30;;
33313;SDS011;19674;51.814;107.688;2022-07-01T05:25:56;0.32;;;0.32;;
33313;SDS011;19674;51.814;107.688;2022-07-01T05:28:22;0.38;;;0.38;;
33313;SDS011;19674;51.814;107.688;2022-07-01T05:30:48;0.30;;;0.30;;
33313;SDS011;19674;51.814;107.688;2022-07-01T05:33:14;0.40;;;0.40;;
33313;SDS011;19674;51.814;107.688;2022-07-01T05:35:40;0.40;;;0.40;;
33313;SDS011;19674;51.814;107.688;2022-07-01T05:38:06;0.40;;;0.40;;
33313;SDS011;19674;51.814;107.688;2022-07-01T05:40:32;0.40;;;0.40;;
33313;SDS011;19674;51.814;107.688;2022-07-01T05:42:58;0.40;;;0.40;;
33313;SDS011;19674;51.814;107.688;2022-07-01T05:45:24;0.40;;;0.40;;
33313;SDS011;19674;51.814;107.688;2022-07-01T05:47:50;0.40;;;0.40;;
33313;SDS011;19674;51.814;107.688;2022-07-01T05:50:16;0.50;;;0.50;;
33313;SDS011;19674;51.814;107.688;2022-07-01T05:52:42;0.50;;;0.50;;
33313;SDS011;19674;51.814;107.688;2022-07-01T05:55:09;0.40;;;0.40;;
33313;SDS011;19674;51.814;107.688;2022-07-01T05:57:36;0.40;;;0.40;;
33313;SDS011;19674;51.814;107.688;2022-07-01T06:00:03;0.40;;;0.40;;
33313;SDS011;19674;51.814;107.688;2022-07-01T06:02:30;0.30;;;0.30;;
33313;SDS011;19674;51.814;107.688;2022-07-01T06:04:56;0.50;;;0.50;;
33313;SDS011;19674;51.814;107.688;2022-07-01T06:07:24;0.40;;;0.40;;
33313;SDS011;19674;51.814;107.688;2022-07-01T06:09:50;0.47;;;0.47;;
33313;SDS011;19674;51.814;107.688;2022-07-01T06:12:16;0.50;;;0.50;;
33313;SDS011;19674;51.814;107.688;2022-07-01T06:14:42;0.50;;;0.50;;
33313;SDS011;19674;51.814;107.688;2022-07-01T06:17:09;0.50;;;0.50;;
33313;SDS011;19674;51.814;107.688;2022-07-01T06:19:35;0.43;;;0.43;;
33313;SDS011;19674;51.814;107.688;2022-07-01T06:22:03;0.50;;;0.50;;
33313;SDS011;19674;51.814;107.688;2022-07-01T06:24:30;0.50;;;0.50;;
33313;SDS011;19674;51.814;107.688;2022-07-01T06:26:56;0.50;;;0.50;;
33313;SDS011;19674;51.814;107.688;2022-07-01T06:29:22;0.50;;;0.50;;
33313;SDS011;19674;51.814;107.688;2022-07-01T06:31:48;0.60;;;0.60;;
33313;SDS011;19674;51.814;107.688;2022-07-01T06:34:14;0.50;;;0.50;;
33313;SDS011;19674;51.814;107.688;2022-07-01T06:36:40;0.50;;;0.50;;
33313;SDS011;19674;51.814;107.688;2022-07-01T06:39:06;0.50;;;0.50;;
33313;SDS011;19674;51.814;107.688;2022-07-01T06:41:32;0.60;;;0.60;;
33313;SDS011;19674;51.814;107.688;2022-07-01T06:43:59;0.60;;;0.60;;
33313;SDS011;19674;51.814;107.688;2022-07-01T06:46:26;0.60;;;0.60;;
33313;SDS011;19674;51.814;107.688;2022-07-01T06:48:53;0.60;;;0.60;;
33313;SDS011;19674;51.814;107.688;2022-07-01T06:51:19;0.60;;;0.60;;
33313;SDS011;19674;51.814;107.688;2022-07-01T06:53:45;0.60;;;0.60;;
33313;SDS011;19674;51.814;107.688;2022-07-01T06:56:14;0.60;;;0.60;;
33313;SDS011;19674;51.814;107.688;2022-07-01T06:58:41;0.50;;;0.50;;
33313;SDS011;19674;51.814;107.688;2022-07-01T07:01:08;0.50;;;0.50;;
33313;SDS011;19674;51.814;107.688;2022-07-01T07:03:35;0.52;;;0.52;;
33313;SDS011;19674;51.814;107.688;2022-07-01T07:06:01;0.60;;;0.60;;
33313;SDS011;19674;51.814;107.688;2022-07-01T07:08:31;0.60;;;0.60;;
33313;SDS011;19674;51.814;107.688;2022-07-01T07:10:57;0.60;;;0.60;;
33313;SDS011;19674;51.814;107.688;2022-07-01T07:13:24;0.50;;;0.50;;
33313;SDS011;19674;51.814;107.688;2022-07-01T07:15:50;0.60;;;0.60;;
33313;SDS011;19674;51.814;107.688;2022-07-01T07:18:16;0.50;;;0.50;;
33313;SDS011;19674;51.814;107.688;2022-07-01T07:20:43;0.60;;;0.60;;
33313;SDS011;19674;51.814;107.688;2022-07-01T07:23:09;0.60;;;0.60;;
33313;SDS011;19674;51.814;107.688;2022-07-01T07:25:35;0.60;;;0.60;;
33313;SDS011;19674;51.814;107.688;2022-07-01T07:28:01;0.55;;;0.55;;
33313;SDS011;19674;51.814;107.688;2022-07-01T07:30:27;0.60;;;0.60;;
33313;SDS011;19674;51.814;107.688;2022-07-01T07:32:53;0.60;;;0.60;;
33313;SDS011;19674;51.814;107.688;2022-07-01T07:35:19;0.60;;;0.60;;
33313;SDS011;19674;51.814;107.688;2022-07-01T07:37:45;0.60;;;0.60;;
33313;SDS011;19674;51.814;107.688;2022-07-01T07:40:12;0.50;;;0.50;;
33313;SDS011;19674;51.814;107.688;2022-07-01T07:42:43;0.50;;;0.50;;
33313;SDS011;19674;51.814;107.688;2022-07-01T07:45:10;0.52;;;0.52;;
33313;SDS011;19674;51.814;107.688;2022-07-01T07:47:37;0.60;;;0.60;;
33313;SDS011;19674;51.814;107.688;2022-07-01T07:50:03;0.52;;;0.52;;
33313;SDS011;19674;51.814;107.688;2022-07-01T07:52:30;0.55;;;0.55;;
33313;SDS011;19674;51.814;107.688;2022-07-01T07:54:56;0.50;;;0.50;;
33313;SDS011;19674;51.814;107.688;2022-07-01T07:57:22;0.57;;;0.57;;
33313;SDS011;19674;51.814;107.688;2022-07-01T07:59:48;0.50;;;0.50;;
33313;SDS011;19674;51.814;107.688;2022-07-01T08:02:18;0.43;;;0.43;;
33313;SDS011;19674;51.814;107.688;2022-07-01T08:04:44;0.50;;;0.50;;
33313;SDS011;19674;51.814;107.688;2022-07-01T08:07:10;0.50;;;0.50;;
33313;SDS011;19674;51.814;107.688;2022-07-01T08:09:36;0.50;;;0.50;;
33313;SDS011;19674;51.814;107.688;2022-07-01T08:12:02;0.50;;;0.50;;
33313;SDS011;19674;51.814;107.688;2022-07-01T08:14:29;0.50;;;0.50;;
33313;SDS011;19674;51.814;107.688;2022-07-01T08:16:55;0.40;;;0.40;;
33313;SDS011;19674;51.814;107.688;2022-07-01T08:19:22;0.50;;;0.50;;
33313;SDS011;19674;51.814;107.688;2022-07-01T08:21:48;0.50;;;0.50;;
33313;SDS011;19674;51.814;107.688;2022-07-01T08:24:14;0.50;;;0.50;;
33313;SDS011;19674;51.814;107.688;2022-07-01T08:26:40;0.50;;;0.50;;
33313;SDS011;19674;51.814;107.688;2022-07-01T08:29:06;0.52;;;0.52;;
33313;SDS011;19674;51.814;107.688;2022-07-01T08:31:32;0.50;;;0.50;;
33313;SDS011;19674;51.814;107.688;2022-07-01T08:33:58;0.50;;;0.50;;
33313;SDS011;19674;51.814;107.688;2022-07-01T08:36:24;0.50;;;0.50;;
33313;SDS011;19674;51.814;107.688;2022-07-01T08:38:50;0.50;;;0.50;;
33313;SDS011;19674;51.814;107.688;2022-07-01T08:41:16;0.50;;;0.50;;
33313;SDS011;19674;51.814;107.688;2022-07-01T08:43:44;0.50;;;0.50;;
33313;SDS011;19674;51.814;107.688;2022-07-01T08:46:10;0.40;;;0.40;;
33313;SDS011;19674;51.814;107.688;2022-07-01T08:48:36;0.50;;;0.50;;
33313;SDS011;19674;51.814;107.688;2022-07-01T08:51:02;0.50;;;0.50;;
33313;SDS011;19674;51.814;107.688;2022-07-01T08:53:30;0.40;;;0.40;;
33313;SDS011;19674;51.814;107.688;2022-07-01T08:55:57;0.50;;;0.50;;
33313;SDS011;19674;51.814;107.688;2022-07-01T08:58:41;0.40;;;0.40;;
33313;SDS011;19674;51.814;107.688;2022-07-01T09:01:18;0.40;;;0.40;;
33313;SDS011;19674;51.814;107.688;2022-07-01T09:03:49;0.40;;;0.40;;
33313;SDS011;19674;51.814;107.688;2022-07-01T09:06:18;0.50;;;0.50;;
33313;SDS011;19674;51.814;107.688;2022-07-01T09:08:45;0.50;;;0.50;;
33313;SDS011;19674;51.814;107.688;2022-07-01T09:11:15;0.50;;;0.50;;
33313;SDS011;19674;51.814;107.688;2022-07-01T09:13:43;0.50;;;0.50;;
33313;SDS011;19674;51.814;107.688;2022-07-01T09:16:14;0.40;;;0.40;;
33313;SDS011;19674;51.814;107.688;2022-07-01T09:18:58;0.40;;;0.40;;
33313;SDS011;19674;51.814;107.688;2022-07-01T09:21:29;0.40;;;0.40;;
33313;SDS011;19674;51.814;107.688;2022-07-01T09:24:01;0.50;;;0.50;;
33313;SDS011;19674;51.814;107.688;2022-07-01T09:26:28;0.50;;;0.50;;
33313;SDS011;19674;51.814;107.688;2022-07-01T09:28:55;0.43;;;0.43;;
33313;SDS011;19674;51.814;107.688;2022-07-01T09:31:22;0.50;;;0.50;;
33313;SDS011;19674;51.814;107.688;2022-07-01T09:34:04;0.40;;;0.40;;
33313;SDS011;19674;51.814;107.688;2022-07-01T09:36:33;0.50;;;0.50;;
33313;SDS011;19674;51.814;107.688;2022-07-01T09:39:04;0.50;;;0.50;;
33313;SDS011;19674;51.814;107.688;2022-07-01T09:41:37;0.40;;;0.40;;
33313;SDS011;19674;51.814;107.688;2022-07-01T09:44:04;0.40;;;0.40;;
33313;SDS011;19674;51.814;107.688;2022-07-01T09:46:32;0.50;;;0.50;;
33313;SDS011;19674;51.814;107.688;2022-07-01T09:48:58;0.40;;;0.40;;
33313;SDS011;19674;51.814;107.688;2022-07-01T09:51:24;0.45;;;0.45;;
33313;SDS011;19674;51.814;107.688;2022-07-01T09:53:50;0.40;;;0.40;;
33313;SDS011;19674;51.814;107.688;2022-07-01T09:56:17;0.50;;;0.50;;
33313;SDS011;19674;51.814;107.688;2022-07-01T09:58:47;0.47;;;0.47;;
33313;SDS011;19674;51.814;107.688;2022-07-01T10:01:13;0.40;;;0.40;;
33313;SDS011;19674;51.814;107.688;2022-07-01T10:03:41;0.43;;;0.43;;
33313;SDS011;19674;51.814;107.688;2022-07-01T10:14:09;0.40;;;0.40;;
33313;SDS011;19674;51.814;107.688;2022-07-01T10:16:37;0.40;;;0.40;;
33313;SDS011;19674;51.814;107.688;2022-07-01T10:21:57;0.40;;;0.40;;
33313;SDS011;19674;51.814;107.688;2022-07-01T10:24:27;0.40;;;0.40;;
33313;SDS011;19674;51.814;107.688;2022-07-01T10:27:00;0.40;;;0.40;;
33313;SDS011;19674;51.814;107.688;2022-07-01T10:29:30;0.40;;;0.40;;
33313;SDS011;19674;51.814;107.688;2022-07-01T10:32:09;0.40;;;0.40;;
33313;SDS011;19674;51.814;107.688;2022-07-01T10:34:50;0.40;;;0.40;;
33313;SDS011;19674;51.814;107.688;2022-07-01T10:37:31;0.30;;;0.30;;
33313;SDS011;19674;51.814;107.688;2022-07-01T10:40:00;0.40;;;0.40;;
33313;SDS011;19674;51.814;107.688;2022-07-01T10:42:31;0.30;;;0.30;;
33313;SDS011;19674;51.814;107.688;2022-07-01T10:44:59;0.30;;;0.30;;
33313;SDS011;19674;51.814;107.688;2022-07-01T10:47:29;0.40;;;0.40;;
33313;SDS011;19674;51.814;107.688;2022-07-01T10:49:59;0.40;;;0.40;;
33313;SDS011;19674;51.814;107.688;2022-07-01T10:52:29;0.40;;;0.40;;
33313;SDS011;19674;51.814;107.688;2022-07-01T10:54:56;0.40;;;0.40;;
33313;SDS011;19674;51.814;107.688;2022-07-01T10:57:29;0.40;;;0.40;;
33313;SDS011;19674;51.814;107.688;2022-07-01T11:02:27;0.40;;;0.40;;
33313;SDS011;19674;51.814;107.688;2022-07-01T11:07:31;0.30;;;0.30;;
33313;SDS011;19674;51.814;107.688;2022-07-01T11:09:59;0.30;;;0.30;;
33313;SDS011;19674;51.814;107.688;2022-07-01T11:12:26;0.30;;;0.30;;
33313;SDS011;19674;51.814;107.688;2022-07-01T11:14:54;0.40;;;0.40;;
33313;SDS011;19674;51.814;107.688;2022-07-01T11:17:24;0.30;;;0.30;;
33313;SDS011;19674;51.814;107.688;2022-07-01T11:19:53;0.30;;;0.30;;
33313;SDS011;19674;51.814;107.688;2022-07-01T11:22:25;0.30;;;0.30;;
33313;SDS011;19674;51.814;107.688;2022-07-01T11:24:54;0.30;;;0.30;;
33313;SDS011;19674;51.814;107.688;2022-07-01T11:27:21;0.30;;;0.30;;
33313;SDS011;19674;51.814;107.688;2022-07-01T11:29:51;0.40;;;0.40;;
33313;SDS011;19674;51.814;107.688;2022-07-01T11:32:28;0.28;;;0.28;;
33313;SDS011;19674;51.814;107.688;2022-07-01T11:34:59;0.30;;;0.30;;
33313;SDS011;19674;51.814;107.688;2022-07-01T11:37:27;0.30;;;0.30;;
33313;SDS011;19674;51.814;107.688;2022-07-01T11:40:13;0.30;;;0.30;;
33313;SDS011;19674;51.814;107.688;2022-07-01T11:42:41;0.20;;;0.20;;
33313;SDS011;19674;51.814;107.688;2022-07-01T11:45:07;0.30;;;0.30;;
33313;SDS011;19674;51.814;107.688;2022-07-01T11:47:34;0.30;;;0.30;;
33313;SDS011;19674;51.814;107.688;2022-07-01T11:50:00;0.20;;;0.20;;
33313;SDS011;19674;51.814;107.688;2022-07-01T11:52:26;0.30;;;0.30;;
33313;SDS011;19674;51.814;107.688;2022-07-01T11:54:55;0.30;;;0.30;;
33313;SDS011;19674;51.814;107.688;2022-07-01T11:57:25;0.30;;;0.30;;
33313;SDS011;19674;51.814;107.688;2022-07-01T11:59:54;0.30;;;0.30;;
33313;SDS011;19674;51.814;107.688;2022-07-01T12:02:22;0.25;;;0.25;;
33313;SDS011;19674;51.814;107.688;2022-07-01T12:04:50;0.30;;;0.30;;
33313;SDS011;19674;51.814;107.688;2022-07-01T12:07:19;0.30;;;0.30;;
33313;SDS011;19674;51.814;107.688;2022-07-01T12:09:50;0.30;;;0.30;;
33313;SDS011;19674;51.814;107.688;2022-07-01T12:12:20;0.30;;;0.30;;
33313;SDS011;19674;51.814;107.688;2022-07-01T12:14:54;0.30;;;0.30;;
33313;SDS011;19674;51.814;107.688;2022-07-01T12:17:22;0.30;;;0.30;;
33313;SDS011;19674;51.814;107.688;2022-07-01T12:19:49;0.30;;;0.30;;
33313;SDS011;19674;51.814;107.688;2022-07-01T12:22:20;0.30;;;0.30;;
33313;SDS011;19674;51.814;107.688;2022-07-01T12:24:49;0.30;;;0.30;;
33313;SDS011;19674;51.814;107.688;2022-07-01T12:27:22;0.30;;;0.30;;
33313;SDS011;19674;51.814;107.688;2022-07-01T12:29:49;0.30;;;0.30;;
33313;SDS011;19674;51.814;107.688;2022-07-01T12:32:25;0.20;;;0.20;;
33313;SDS011;19674;51.814;107.688;2022-07-01T12:37:31;0.22;;;0.22;;
33313;SDS011;19674;51.814;107.688;2022-07-01T12:42:45;0.30;;;0.30;;
33313;SDS011;19674;51.814;107.688;2022-07-01T12:45:12;0.20;;;0.20;;
33313;SDS011;19674;51.814;107.688;2022-07-01T12:47:40;0.20;;;0.20;;
33313;SDS011;19674;51.814;107.688;2022-07-01T12:50:26;0.30;;;0.30;;
33313;SDS011;19674;51.814;107.688;2022-07-01T12:53:03;0.30;;;0.30;;
33313;SDS011;19674;51.814;107.688;2022-07-01T12:55:38;0.30;;;0.30;;
33313;SDS011;19674;51.814;107.688;2022-07-01T12:58:09;0.30;;;0.30;;
33313;SDS011;19674;51.814;107.688;2022-07-01T13:00:40;0.30;;;0.30;;
33313;SDS011;19674;51.814;107.688;2022-07-01T13:03:08;0.28;;;0.28;;
33313;SDS011;19674;51.814;107.688;2022-07-01T13:05:35;0.20;;;0.20;;
33313;SDS011;19674;51.814;107.688;2022-07-01T13:08:05;0.22;;;0.22;;
33313;SDS011;19674;51.814;107.688;2022-07-01T13:10:32;0.20;;;0.20;;
33313;SDS011;19674;51.814;107.688;2022-07-01T13:12:58;0.20;;;0.20;;
33313;SDS011;19674;51.814;107.688;2022-07-01T13:15:25;0.30;;;0.30;;
33313;SDS011;19674;51.814;107.688;2022-07-01T13:17:51;0.20;;;0.20;;
33313;SDS011;19674;51.814;107.688;2022-07-01T13:20:17;0.30;;;0.30;;
33313;SDS011;19674;51.814;107.688;2022-07-01T13:22:44;0.30;;;0.30;;
33313;SDS011;19674;51.814;107.688;2022-07-01T13:25:11;0.28;;;0.28;;
33313;SDS011;19674;51.814;107.688;2022-07-01T13:27:37;0.30;;;0.30;;
33313;SDS011;19674;51.814;107.688;2022-07-01T13:30:04;0.20;;;0.20;;
33313;SDS011;19674;51.814;107.688;2022-07-01T13:32:32;0.20;;;0.20;;
33313;SDS011;19674;51.814;107.688;2022-07-01T13:34:58;0.20;;;0.20;;
33313;SDS011;19674;51.814;107.688;2022-07-01T13:37:25;0.25;;;0.25;;
33313;SDS011;19674;51.814;107.688;2022-07-01T13:39:51;0.20;;;0.20;;
33313;SDS011;19674;51.814;107.688;2022-07-01T13:42:17;0.28;;;0.28;;
33313;SDS011;19674;51.814;107.688;2022-07-01T13:44:43;0.30;;;0.30;;
33313;SDS011;19674;51.814;107.688;2022-07-01T13:47:09;0.20;;;0.20;;
33313;SDS011;19674;51.814;107.688;2022-07-01T13:49:38;0.20;;;0.20;;
33313;SDS011;19674;51.814;107.688;2022-07-01T13:52:04;0.20;;;0.20;;
33313;SDS011;19674;51.814;107.688;2022-07-01T13:54:31;0.30;;;0.30;;
33313;SDS011;19674;51.814;107.688;2022-07-01T13:56:57;0.20;;;0.20;;
33313;SDS011;19674;51.814;107.688;2022-07-01T13:59:23;0.20;;;0.20;;
33313;SDS011;19674;51.814;107.688;2022-07-01T14:01:52;0.20;;;0.20;;
33313;SDS011;19674;51.814;107.688;2022-07-01T14:04:18;0.20;;;0.20;;
33313;SDS011;19674;51.814;107.688;2022-07-01T14:06:44;0.20;;;0.20;;
33313;SDS011;19674;51.814;107.688;2022-07-01T14:09:10;0.20;;;0.20;;
33313;SDS011;19674;51.814;107.688;2022-07-01T14:11:36;0.20;;;0.20;;
33313;SDS011;19674;51.814;107.688;2022-07-01T14:14:03;0.30;;;0.30;;
33313;SDS011;19674;51.814;107.688;2022-07-01T14:16:30;0.20;;;0.20;;
33313;SDS011;19674;51.814;107.688;2022-07-01T14:18:56;0.20;;;0.20;;
33313;SDS011;19674;51.814;107.688;2022-07-01T14:21:22;0.20;;;0.20;;
33313;SDS011;19674;51.814;107.688;2022-07-01T14:23:49;0.30;;;0.30;;
33313;SDS011;19674;51.814;107.688;2022-07-01T14:26:15;0.30;;;0.30;;
33313;SDS011;19674;51.814;107.688;2022-07-01T14:28:41;0.20;;;0.20;;
33313;SDS011;19674;51.814;107.688;2022-07-01T14:31:07;0.20;;;0.20;;
33313;SDS011;19674;51.814;107.688;2022-07-01T14:33:33;0.20;;;0.20;;
33313;SDS011;19674;51.814;107.688;2022-07-01T14:35:59;0.20;;;0.20;;
33313;SDS011;19674;51.814;107.688;2022-07-01T14:38:25;0.22;;;0.22;;
33313;SDS011;19674;51.814;107.688;2022-07-01T14:40:52;0.30;;;0.30;;
33313;SDS011;19674;51.814;107.688;2022-07-01T14:43:18;0.30;;;0.30;;
33313;SDS011;19674;51.814;107.688;2022-07-01T14:45:44;0.30;;;0.30;;